Time;durP1;ratioP1;P1;durP2;ratioP2;P2;SDS_P1;SDS_P2;PMS_P1;PMS_P2;Temp;Humidity;BMP_temperature;BMP_pressure;BME280_temperature;BME280_humidity;BME280_pressure;Samples;Min_cycle;Max_cycle;Signal;HPM_P1;HPM_P2
2023/11/21 00:00:20;;;;;;;6.15;2.10;;;;;;;-4.93;55.90;98956.31;5027335;28;20124;-39
2023/11/21 00:02:46;;;;;;;5.65;2.28;;;;;;;-4.72;56.24;98993.81;5027388;28;20429;-39
2023/11/21 00:05:14;;;;;;;5.25;2.35;;;;;;;-4.69;55.69;98996.38;5041730;28;20037;-38
2023/11/21 00:07:41;;;;;;;7.22;2.80;;;;;;;-4.66;55.74;98995.59;4977575;28;20553;-39
2023/11/21 00:10:08;;;;;;;4.60;2.50;;;;;;;-4.70;55.70;98998.06;5026268;28;20118;-39
2023/11/21 00:12:35;;;;;;;11.43;2.50;;;;;;;-4.68;55.43;98997.25;5025029;28;20076;-39
2023/11/21 00:15:01;;;;;;;5.43;2.42;;;;;;;-4.68;55.65;98999.78;5026758;28;20435;-38
2023/11/21 00:17:31;;;;;;;4.75;2.50;;;;;;;-4.68;56.25;98994.72;5015126;28;20043;-44
2023/11/21 00:19:57;;;;;;;4.63;2.10;;;;;;;-4.67;55.70;99004.88;5020087;28;20033;-37
2023/11/21 00:22:22;;;;;;;4.45;2.10;;;;;;;-4.65;55.57;99007.41;5026338;28;20099;-37
2023/11/21 00:24:48;;;;;;;5.13;2.35;;;;;;;-4.63;55.85;99000.69;5024502;28;20045;-38
2023/11/21 00:27:14;;;;;;;4.95;2.70;;;;;;;-4.66;55.51;98999.00;5026498;28;20048;-39
2023/11/21 00:29:40;;;;;;;7.00;2.17;;;;;;;-4.58;55.50;98999.09;5024801;28;20064;-39
2023/11/21 00:32:07;;;;;;;8.32;3.05;;;;;;;-4.58;55.50;98997.41;5026289;28;20075;-37
2023/11/21 00:34:34;;;;;;;4.07;1.73;;;;;;;-4.56;55.42;98997.44;5007702;28;20042;-39
2023/11/21 00:37:00;;;;;;;4.03;2.17;;;;;;;-4.58;55.78;98989.78;5022572;28;20272;-38
2023/11/21 00:39:26;;;;;;;6.40;2.58;;;;;;;-4.59;55.68;98994.84;5047185;28;20512;-38
2023/11/21 00:41:52;;;;;;;4.78;2.28;;;;;;;-4.62;55.96;98990.59;5037543;28;20041;-38
2023/11/21 00:44:18;;;;;;;5.70;2.30;;;;;;;-4.65;55.49;98984.59;5017353;28;20201;-38
2023/11/21 00:46:44;;;;;;;4.45;1.92;;;;;;;-4.78;55.55;98970.91;5016388;28;21323;-38
2023/11/21 00:49:11;;;;;;;6.60;2.30;;;;;;;-4.64;55.51;98981.25;5025894;28;20120;-39
2023/11/21 00:51:36;;;;;;;4.47;2.20;;;;;;;-4.61;55.68;98986.38;5008491;28;20076;-38
2023/11/21 00:54:02;;;;;;;3.88;2.08;;;;;;;-4.78;55.77;98964.16;5008878;28;20037;-39
2023/11/21 00:56:28;;;;;;;4.65;2.58;;;;;;;-4.83;56.25;98953.09;5008295;28;20040;-38
2023/11/21 00:58:54;;;;;;;5.95;2.45;;;;;;;-4.66;56.12;98983.78;5027144;28;20045;-39
2023/11/21 01:01:24;;;;;;;7.30;2.33;;;;;;;-4.64;56.08;98986.31;5025765;28;20041;-38
2023/11/21 01:03:50;;;;;;;3.83;2.08;;;;;;;-4.95;56.11;98927.56;5041290;28;20095;-38
2023/11/21 01:06:16;;;;;;;3.90;1.90;;;;;;;-4.69;56.25;98981.19;5014070;28;20095;-38
2023/11/21 01:08:44;;;;;;;4.93;2.42;;;;;;;-4.66;55.72;98986.31;5025667;28;20038;-39
2023/11/21 01:11:12;;;;;;;7.53;2.47;;;;;;;-4.85;55.92;98948.81;5006117;28;20045;-39
2023/11/21 01:13:41;;;;;;;4.78;1.90;;;;;;;-4.65;55.80;98990.53;5008308;28;20132;-38
2023/11/21 01:16:08;;;;;;;3.75;2.03;;;;;;;-4.64;55.93;98984.63;5025542;28;20044;-39
2023/11/21 01:18:35;;;;;;;5.18;2.35;;;;;;;-4.65;56.58;98988.00;5026988;28;20052;-38
2023/11/21 01:21:00;;;;;;;4.85;2.10;;;;;;;-4.83;56.02;98965.78;5018915;28;20042;-40
2023/11/21 01:23:27;;;;;;;4.47;1.70;;;;;;;-4.68;55.89;98982.88;5018063;28;20505;-38
2023/11/21 01:25:55;;;;;;;5.72;2.25;;;;;;;-4.79;55.88;98979.34;5009702;28;20044;-37
2023/11/21 01:28:22;;;;;;;4.45;1.80;;;;;;;-5.10;55.71;98929.88;5025872;28;20056;-38
2023/11/21 01:30:48;;;;;;;4.57;2.10;;;;;;;-4.81;55.92;98980.97;4992993;28;20045;-38
2023/11/21 01:33:15;;;;;;;3.35;1.77;;;;;;;-5.05;55.29;98958.66;5025136;28;20037;-39
2023/11/21 01:35:42;;;;;;;3.80;1.67;;;;;;;-5.27;55.63;98919.47;5026047;28;20049;-38
2023/11/21 01:38:08;;;;;;;3.95;1.90;;;;;;;-4.87;55.84;98988.53;5026008;28;20543;-38
2023/11/21 01:40:35;;;;;;;7.88;2.22;;;;;;;-5.02;55.69;98973.06;5024617;28;20426;-39
2023/11/21 01:43:03;;;;;;;2.95;1.83;;;;;;;-4.88;55.72;98991.88;5024655;28;20049;-39
2023/11/21 01:45:31;;;;;;;5.68;1.90;;;;;;;-4.88;55.40;98997.81;5009606;28;20052;-39
2023/11/21 01:47:57;;;;;;;5.95;2.15;;;;;;;-4.83;55.20;99000.41;5010496;28;20125;-39
2023/11/21 01:50:24;;;;;;;4.13;1.88;;;;;;;-5.16;55.01;98940.75;5014574;28;20042;-38
2023/11/21 01:52:50;;;;;;;5.13;1.75;;;;;;;-4.86;55.10;99003.72;5017326;28;20069;-39
2023/11/21 01:55:20;;;;;;;3.20;1.70;;;;;;;-4.86;55.35;98993.59;5008284;28;20111;-39
2023/11/21 01:57:47;;;;;;;3.55;1.50;;;;;;;-4.84;54.48;98998.69;5026107;28;20077;-47
2023/11/21 02:00:16;;;;;;;5.13;1.73;;;;;;;-4.88;55.13;98987.66;5009351;28;20030;-38
2023/11/21 02:02:46;;;;;;;3.38;1.58;;;;;;;-4.84;55.03;98997.00;5025037;28;20056;-38
2023/11/21 02:05:18;;;;;;;2.83;1.55;;;;;;;-4.86;54.93;98991.06;5025009;28;20044;-37
2023/11/21 02:07:47;;;;;;;3.85;1.85;;;;;;;-4.89;54.84;98985.09;5008699;28;20056;-37
2023/11/21 02:10:14;;;;;;;4.80;1.67;;;;;;;-4.88;54.72;98986.81;5008036;28;20049;-39
2023/11/21 02:12:44;;;;;;;2.67;1.50;;;;;;;-4.85;54.93;98981.78;5008472;28;20133;-39
2023/11/21 02:15:15;;;;;;;7.85;1.67;;;;;;;-4.89;54.63;98987.63;5026684;28;20041;-37
2023/11/21 02:17:51;;;;;;;6.32;1.63;;;;;;;-4.99;54.54;98975.66;5024217;28;20041;-37
2023/11/21 02:20:18;;;;;;;5.75;1.63;;;;;;;-5.05;54.74;98980.59;5025516;28;20523;-39
2023/11/21 02:23:04;;;;;;;3.63;1.40;;;;;;;-5.02;54.45;98984.03;5011897;28;20041;-38
2023/11/21 02:25:33;;;;;;;3.30;1.70;;;;;;;-5.01;54.44;98988.28;5024343;28;20041;-39
2023/11/21 02:28:00;;;;;;;3.70;1.80;;;;;;;-5.05;54.04;98985.69;5000287;28;20582;-39
2023/11/21 02:30:33;;;;;;;2.95;1.55;;;;;;;-5.03;53.91;98994.16;5025763;28;20073;-37
2023/11/21 02:33:00;;;;;;;11.23;1.88;;;;;;;-5.32;53.79;98954.00;5030740;28;20040;-39
2023/11/21 02:35:26;;;;;;;4.50;1.55;;;;;;;-5.08;53.58;98991.56;5014031;28;20450;-38
2023/11/21 02:37:53;;;;;;;5.35;1.27;;;;;;;-5.31;53.33;98965.84;5047804;28;20033;-38
2023/11/21 02:40:24;;;;;;;2.90;1.50;;;;;;;-5.12;53.25;99005.00;5028281;28;20041;-39
2023/11/21 02:42:53;;;;;;;2.38;1.58;;;;;;;-5.13;53.27;98999.06;5026897;28;20057;-37
2023/11/21 02:45:20;;;;;;;3.22;1.70;;;;;;;-5.20;53.55;98991.34;5017572;28;20133;-38
2023/11/21 02:47:48;;;;;;;2.25;1.30;;;;;;;-5.16;53.45;98999.03;5032242;28;20046;-38
2023/11/21 02:50:14;;;;;;;3.38;1.55;;;;;;;-5.13;53.77;99010.91;5015641;28;20069;-39
2023/11/21 02:52:40;;;;;;;5.28;1.75;;;;;;;-5.31;53.86;98981.03;5028054;28;20079;-40
2023/11/21 02:55:09;;;;;;;3.75;1.60;;;;;;;-5.10;54.48;99005.03;5028651;28;20521;-39
2023/11/21 02:57:35;;;;;;;8.05;1.73;;;;;;;-5.16;53.71;99014.22;5028773;28;20049;-38
2023/11/21 03:00:02;;;;;;;2.25;1.35;;;;;;;-5.18;53.90;99017.56;5027696;28;20524;-37
2023/11/21 03:02:32;;;;;;;2.85;1.50;;;;;;;-5.20;54.52;99015.00;5025782;28;20049;-38
2023/11/21 03:04:58;;;;;;;4.13;1.80;;;;;;;-5.31;53.94;98990.31;5024843;28;20039;-38
2023/11/21 03:07:24;;;;;;;2.33;1.40;;;;;;;-5.18;54.30;99017.56;5010993;28;20053;-38
2023/11/21 03:09:51;;;;;;;3.33;1.65;;;;;;;-5.23;54.86;99020.00;5016160;28;20135;-37
2023/11/21 03:12:17;;;;;;;4.82;1.85;;;;;;;-5.22;54.48;99013.25;5008470;28;20606;-39
2023/11/21 03:14:43;;;;;;;3.20;1.27;;;;;;;-5.21;55.07;99015.81;5025879;28;20493;-38
2023/11/21 03:17:09;;;;;;;3.13;1.25;;;;;;;-5.18;54.74;99015.88;5027733;28;20048;-37
2023/11/21 03:19:35;;;;;;;4.25;1.80;;;;;;;-5.22;54.38;99015.78;5027956;28;20041;-38
2023/11/21 03:22:01;;;;;;;3.25;1.40;;;;;;;-5.17;54.52;99022.66;5058909;28;20428;-39
2023/11/21 03:24:27;;;;;;;7.00;1.70;;;;;;;-5.18;54.80;99022.66;5025905;28;20536;-38
2023/11/21 03:26:53;;;;;;;3.22;1.77;;;;;;;-5.36;54.79;98984.31;5024176;28;20045;-37
2023/11/21 03:29:19;;;;;;;6.18;1.73;;;;;;;-5.10;54.94;99013.47;5026251;28;20153;-36
2023/11/21 03:31:45;;;;;;;4.68;1.73;;;;;;;-5.11;54.70;99011.75;5026508;28;20041;-38
2023/11/21 03:34:16;;;;;;;3.28;2.00;;;;;;;-5.09;54.92;99020.25;5026697;28;20037;-38
2023/11/21 03:36:43;;;;;;;3.75;1.58;;;;;;;-5.09;54.92;99015.19;5027233;28;20037;-38
2023/11/21 03:39:09;;;;;;;2.45;1.60;;;;;;;-5.12;54.97;99021.03;5027901;28;20504;-38
2023/11/21 03:41:35;;;;;;;2.72;1.40;;;;;;;-5.30;55.47;98987.81;5018961;28;20077;-39
2023/11/21 03:44:02;;;;;;;4.05;1.67;;;;;;;-5.09;55.53;99032.06;5012817;28;20514;-38
2023/11/21 03:46:28;;;;;;;4.18;2.10;;;;;;;-5.10;55.42;99033.75;5021269;28;20230;-38
2023/11/21 03:48:55;;;;;;;8.45;1.42;;;;;;;-5.10;55.30;99028.69;5027293;28;20699;-38
2023/11/21 03:51:21;;;;;;;3.75;1.80;;;;;;;-5.11;55.54;99034.56;5026279;28;20076;-40
2023/11/21 03:53:47;;;;;;;2.28;1.38;;;;;;;-5.07;55.51;99038.00;5008869;28;20561;-38
2023/11/21 03:56:14;;;;;;;5.15;2.10;;;;;;;-5.05;55.44;99033.81;5026215;28;20183;-38
2023/11/21 03:58:40;;;;;;;3.10;1.70;;;;;;;-5.09;55.76;99030.41;5027850;28;20485;-39
2023/11/21 04:01:06;;;;;;;6.10;2.00;;;;;;;-5.27;55.66;99003.06;5025462;28;20041;-38
2023/11/21 04:03:32;;;;;;;2.67;1.60;;;;;;;-5.09;55.45;99032.94;5025041;28;20044;-39
2023/11/21 04:05:57;;;;;;;5.00;1.80;;;;;;;-5.37;55.80;98987.66;5021743;28;20103;-39
2023/11/21 04:08:25;;;;;;;3.38;2.13;;;;;;;-5.13;56.06;99029.47;5027618;28;20046;-41
2023/11/21 04:10:53;;;;;;;5.43;1.73;;;;;;;-5.13;56.12;99033.72;5027395;28;20041;-38
2023/11/21 04:13:19;;;;;;;4.32;1.90;;;;;;;-5.08;56.04;99039.72;5026213;28;20135;-39
2023/11/21 04:15:45;;;;;;;5.55;2.33;;;;;;;-5.11;55.83;99039.63;5025436;28;20115;-39
2023/11/21 04:18:11;;;;;;;4.60;2.25;;;;;;;-5.13;55.84;99034.53;5029486;28;20044;-38
2023/11/21 04:20:37;;;;;;;4.95;2.35;;;;;;;-5.12;56.10;99035.38;5026924;28;20037;-40
2023/11/21 04:23:03;;;;;;;4.95;1.70;;;;;;;-5.12;55.60;99036.25;5026885;28;20091;-38
2023/11/21 04:25:29;;;;;;;7.15;1.92;;;;;;;-5.28;55.55;99003.00;5027716;28;20521;-39
2023/11/21 04:27:55;;;;;;;7.47;1.90;;;;;;;-5.15;56.27;99027.75;5027711;28;20056;-39
2023/11/21 04:30:21;;;;;;;6.30;1.90;;;;;;;-5.13;56.14;99032.00;5056378;28;20195;-38
2023/11/21 04:32:47;;;;;;;5.15;2.13;;;;;;;-5.14;56.14;99042.13;5025952;28;20158;-38
2023/11/21 04:35:13;;;;;;;4.53;1.88;;;;;;;-5.16;55.79;99037.03;5021875;28;20124;-38
2023/11/21 04:37:39;;;;;;;5.22;2.35;;;;;;;-5.10;55.87;99043.03;5027276;28;20045;-38
2023/11/21 04:40:06;;;;;;;4.65;2.15;;;;;;;-5.13;56.60;99039.59;5025839;28;20099;-39
2023/11/21 04:42:36;;;;;;;4.95;2.17;;;;;;;-5.09;55.97;99057.41;5037783;28;20144;-39
2023/11/21 04:45:08;;;;;;;4.57;2.22;;;;;;;-5.43;56.06;98990.94;5025639;28;20057;-40
2023/11/21 04:47:33;;;;;;;5.65;2.45;;;;;;;-5.06;56.36;99055.78;5024747;28;20037;-39
2023/11/21 04:49:59;;;;;;;5.32;1.83;;;;;;;-5.09;56.37;99065.88;5024400;28;20429;-61
2023/11/21 04:52:25;;;;;;;4.40;1.98;;;;;;;-5.09;56.23;99063.34;5007303;28;20080;-39
2023/11/21 04:54:54;;;;;;;5.03;1.80;;;;;;;-5.15;56.51;99051.41;5024692;28;20065;-38
2023/11/21 04:57:21;;;;;;;17.30;2.17;;;;;;;-5.13;56.47;99070.00;5008702;28;20041;-38
2023/11/21 04:59:48;;;;;;;5.13;1.92;;;;;;;-5.29;56.54;99044.41;5022715;28;20561;-39
2023/11/21 05:02:14;;;;;;;7.55;1.92;;;;;;;-5.33;56.30;99045.13;5026944;28;20476;-38
2023/11/21 05:04:42;;;;;;;5.63;2.03;;;;;;;-5.15;56.87;99073.34;5023708;28;20441;-39
2023/11/21 05:07:08;;;;;;;11.82;2.28;;;;;;;-5.10;56.57;99079.34;5026142;28;20799;-39
2023/11/21 05:09:35;;;;;;;5.20;2.05;;;;;;;-5.30;56.76;99056.22;5025998;28;20646;-39
2023/11/21 05:12:01;;;;;;;11.35;2.60;;;;;;;-5.14;56.55;99083.53;5002547;28;20046;-39
2023/11/21 05:14:28;;;;;;;8.10;2.90;;;;;;;-5.13;56.31;99081.84;5057016;28;20077;-38
2023/11/21 05:16:54;;;;;;;5.57;2.22;;;;;;;-5.13;56.69;99081.84;5019988;28;20045;-39
2023/11/21 05:19:20;;;;;;;11.05;2.47;;;;;;;-5.14;56.76;99078.47;5023074;28;20084;-39
2023/11/21 05:21:47;;;;;;;7.35;2.40;;;;;;;-5.09;56.45;99082.75;5008737;28;20041;-38
2023/11/21 05:24:13;;;;;;;4.88;2.00;;;;;;;-5.10;56.44;99086.97;5021956;28;20041;-39
2023/11/21 05:26:38;;;;;;;7.05;2.50;;;;;;;-5.08;56.72;99079.41;5025200;28;20041;-38
2023/11/21 05:29:05;;;;;;;5.47;2.28;;;;;;;-5.06;56.68;99091.25;5014384;28;20042;-37
2023/11/21 05:31:31;;;;;;;5.78;2.15;;;;;;;-5.24;56.70;99050.41;5010456;28;20041;-39
2023/11/21 05:33:57;;;;;;;9.18;2.45;;;;;;;-5.09;56.99;99078.53;5015057;28;20040;-38
2023/11/21 05:36:23;;;;;;;7.38;2.50;;;;;;;-5.12;56.74;99074.25;5018828;28;20044;-39
2023/11/21 05:38:48;;;;;;;7.20;2.40;;;;;;;-5.09;57.04;99072.63;5024061;28;20408;-39
2023/11/21 05:41:15;;;;;;;10.00;2.58;;;;;;;-5.06;56.80;99060.84;5026027;28;20068;-38
2023/11/21 05:43:41;;;;;;;6.03;2.78;;;;;;;-5.01;57.07;99069.38;5022576;28;20049;-38
2023/11/21 05:46:07;;;;;;;8.65;2.83;;;;;;;-4.97;56.62;99070.31;5021298;28;20053;-38
2023/11/21 05:48:36;;;;;;;10.45;2.75;;;;;;;-4.93;56.64;99067.84;5041916;28;20050;-38
2023/11/21 05:51:01;;;;;;;8.93;2.17;;;;;;;-4.89;56.74;99069.59;5024294;28;20045;-39
2023/11/21 05:53:27;;;;;;;4.25;2.10;;;;;;;-4.85;56.87;99075.56;5024774;28;20033;-38
2023/11/21 05:55:53;;;;;;;6.07;2.50;;;;;;;-4.84;56.88;99080.66;5005704;28;20037;-38
2023/11/21 05:58:19;;;;;;;3.70;1.95;;;;;;;-4.84;56.80;99072.19;5029130;28;20144;-40
2023/11/21 06:00:45;;;;;;;7.72;2.90;;;;;;;-4.80;56.75;99081.56;5019949;28;20581;-38
2023/11/21 06:03:12;;;;;;;3.70;1.98;;;;;;;-4.76;56.67;99079.09;5030254;28;20475;-38
2023/11/21 06:05:38;;;;;;;13.65;2.50;;;;;;;-4.71;56.13;99086.81;5027845;28;20046;-39
2023/11/21 06:08:04;;;;;;;10.52;2.30;;;;;;;-4.63;56.31;99095.38;4999148;28;20088;-40
2023/11/21 06:10:30;;;;;;;4.90;2.75;;;;;;;-4.58;56.29;99097.97;5012411;28;20073;-39
2023/11/21 06:12:57;;;;;;;5.05;2.15;;;;;;;-4.55;56.50;99087.91;4997428;28;20061;-38
2023/11/21 06:15:23;;;;;;;4.13;1.90;;;;;;;-4.47;56.24;99099.00;5018108;28;20243;-39
2023/11/21 06:17:54;;;;;;;5.47;1.65;;;;;;;-4.47;55.89;99093.94;5028885;28;20045;-37
2023/11/21 06:20:22;;;;;;;5.53;2.13;;;;;;;-4.49;56.45;99101.50;5028499;28;20045;-39
2023/11/21 06:22:50;;;;;;;6.63;2.28;;;;;;;-4.39;55.48;99100.84;5027645;28;20053;-39
2023/11/21 06:25:17;;;;;;;3.55;2.03;;;;;;;-4.30;56.03;99108.59;5027700;28;20132;-38
2023/11/21 06:27:45;;;;;;;2.42;1.80;;;;;;;-4.22;55.54;99096.00;5029430;28;20099;-38
2023/11/21 06:30:12;;;;;;;5.57;2.55;;;;;;;-4.15;55.39;99086.81;5024160;28;20421;-38
2023/11/21 06:32:38;;;;;;;6.07;2.10;;;;;;;-4.17;55.54;99102.00;5028056;28;20076;-40
2023/11/21 06:35:05;;;;;;;3.40;1.75;;;;;;;-4.26;55.26;99094.28;5026878;28;20095;-39
2023/11/21 06:37:32;;;;;;;6.60;1.85;;;;;;;-4.30;55.32;99093.38;5029814;28;20049;-38
2023/11/21 06:39:59;;;;;;;5.75;2.15;;;;;;;-4.36;55.33;99105.97;5028226;28;20756;-38
2023/11/21 06:42:25;;;;;;;6.90;1.90;;;;;;;-4.70;55.23;99046.25;5027715;28;20239;-39
2023/11/21 06:44:56;;;;;;;6.03;1.70;;;;;;;-4.44;54.83;99096.50;5028952;28;20063;-39
2023/11/21 06:47:26;;;;;;;4.13;1.85;;;;;;;-4.47;55.38;99101.56;5019200;28;20048;-39
2023/11/21 06:49:52;;;;;;;7.25;1.90;;;;;;;-4.46;55.25;99100.72;5013432;28;20042;-38
2023/11/21 06:52:19;;;;;;;12.73;2.20;;;;;;;-4.49;55.63;99104.06;5018507;28;20049;-39
2023/11/21 06:54:45;;;;;;;5.90;2.08;;;;;;;-4.48;55.36;99112.53;5025669;28;20499;-39
2023/11/21 06:57:11;;;;;;;8.30;2.08;;;;;;;-4.46;55.38;99118.47;5027940;28;20041;-39
2023/11/21 06:59:37;;;;;;;6.53;1.98;;;;;;;-4.44;55.52;99112.59;5012080;28;20614;-38
2023/11/21 07:02:06;;;;;;;6.30;1.92;;;;;;;-4.35;55.23;99115.28;5028102;28;20054;-43
2023/11/21 07:04:36;;;;;;;10.73;2.22;;;;;;;-4.26;55.18;99106.97;5023559;28;20502;-40
2023/11/21 07:07:04;;;;;;;4.57;1.70;;;;;;;-4.20;55.32;99109.59;5004472;28;20433;-39
2023/11/21 07:09:31;;;;;;;7.93;2.20;;;;;;;-4.32;54.98;99084.88;5028924;28;20037;-39
2023/11/21 07:11:58;;;;;;;6.20;2.28;;;;;;;-4.09;53.90;99102.13;5028427;28;20175;-39
2023/11/21 07:14:24;;;;;;;7.30;2.03;;;;;;;-4.13;54.08;99096.13;5026488;28;20102;-38
2023/11/21 07:16:52;;;;;;;5.65;2.28;;;;;;;-4.05;54.16;99109.81;5023238;28;20043;-40
2023/11/21 07:19:19;;;;;;;9.02;1.80;;;;;;;-4.07;53.92;99108.06;5026120;28;20042;-38
2023/11/21 07:21:46;;;;;;;9.27;2.60;;;;;;;-4.43;54.05;99042.41;5025863;28;20132;-38
2023/11/21 07:24:12;;;;;;;4.82;2.13;;;;;;;-4.05;53.85;99112.34;5009445;28;20042;-39
2023/11/21 07:26:38;;;;;;;5.03;2.05;;;;;;;-3.98;54.01;99113.31;5027175;28;20096;-39
2023/11/21 07:29:06;;;;;;;5.90;2.00;;;;;;;-4.07;53.73;99100.47;5029118;28;20430;-39
2023/11/21 07:31:35;;;;;;;7.63;2.53;;;;;;;-3.89;54.11;99121.91;5025807;28;20141;-44
2023/11/21 07:34:02;;;;;;;6.93;2.25;;;;;;;-3.82;53.62;99116.91;5027399;28;20044;-38
2023/11/21 07:36:28;;;;;;;8.30;2.65;;;;;;;-3.83;53.72;99123.66;5028183;28;20067;-38
2023/11/21 07:38:54;;;;;;;3.08;1.90;;;;;;;-3.85;54.13;99115.16;5026494;28;20120;-39
2023/11/21 07:41:20;;;;;;;12.02;2.25;;;;;;;-3.97;53.50;99104.81;5026697;28;20052;-39
2023/11/21 07:43:47;;;;;;;3.22;1.88;;;;;;;-3.90;53.87;99115.09;5027151;28;20039;-39
2023/11/21 07:46:13;;;;;;;4.65;2.08;;;;;;;-3.85;53.75;99118.56;5025042;28;20049;-38
2023/11/21 07:48:41;;;;;;;3.97;2.10;;;;;;;-4.01;53.65;99090.41;5011707;28;20033;-37
2023/11/21 07:51:09;;;;;;;5.80;2.38;;;;;;;-3.74;53.77;99126.31;5027984;28;20045;-38
2023/11/21 07:53:35;;;;;;;7.25;1.85;;;;;;;-3.73;53.53;99120.41;5027416;28;20037;-38
2023/11/21 07:56:05;;;;;;;5.55;1.65;;;;;;;-3.69;53.63;99116.22;5026141;28;20071;-37
2023/11/21 07:58:33;;;;;;;3.38;1.48;;;;;;;-3.81;53.17;99088.97;5018699;28;20148;-37
2023/11/21 08:01:00;;;;;;;3.10;1.48;;;;;;;-3.56;52.77;99116.38;5021764;28;20551;-41
2023/11/21 08:03:26;;;;;;;8.88;2.10;;;;;;;-3.35;52.63;99112.44;5013227;28;20049;-38
2023/11/21 08:05:53;;;;;;;4.93;2.20;;;;;;;-3.24;52.53;99109.16;5031457;28;20045;-38
2023/11/21 08:08:19;;;;;;;4.63;1.67;;;;;;;-3.14;52.38;99116.03;5032521;28;20900;-38
2023/11/21 08:10:55;;;;;;;6.05;2.40;;;;;;;-3.14;52.61;99110.94;5009402;28;20056;-38
2023/11/21 08:13:26;;;;;;;5.55;1.70;;;;;;;-3.18;52.69;99106.69;5037219;28;20512;-39
2023/11/21 08:16:02;;;;;;;3.67;1.83;;;;;;;-3.11;52.86;99112.69;5031298;28;20764;-39
2023/11/21 08:18:29;;;;;;;12.68;2.22;;;;;;;-3.06;52.92;99108.50;5036025;28;20127;-40
2023/11/21 08:20:55;;;;;;;6.78;2.08;;;;;;;-3.06;52.57;99101.72;5018960;28;20182;-39
2023/11/21 08:23:25;;;;;;;13.10;1.80;;;;;;;-3.10;52.49;99102.53;5004764;28;20069;-38
2023/11/21 08:25:52;;;;;;;11.05;2.13;;;;;;;-3.05;52.33;99095.81;5036867;28;20067;-38
2023/11/21 08:28:19;;;;;;;12.52;2.45;;;;;;;-3.03;52.03;99095.81;5024720;28;20176;-44
2023/11/21 08:30:44;;;;;;;4.85;1.85;;;;;;;-2.98;52.26;99098.44;5019094;28;20033;-38
2023/11/21 08:33:11;;;;;;;7.38;2.40;;;;;;;-3.07;52.26;99099.16;5027071;28;20044;-39
2023/11/21 08:35:38;;;;;;;10.27;2.00;;;;;;;-3.09;52.40;99096.59;5024931;28;20084;-38
2023/11/21 08:38:04;;;;;;;8.07;2.65;;;;;;;-3.13;52.78;99097.41;5025829;28;20120;-37
2023/11/21 08:40:30;;;;;;;4.63;1.92;;;;;;;-3.19;52.99;99092.25;5027721;28;20125;-38
2023/11/21 08:42:58;;;;;;;4.13;1.92;;;;;;;-3.18;53.13;99088.88;5019020;28;20139;-38
2023/11/21 08:45:25;;;;;;;3.27;1.87;;;;;;;-3.23;53.36;99093.06;5025374;28;20124;-38
2023/11/21 08:47:52;;;;;;;3.95;1.70;;;;;;;-3.26;53.57;99092.19;5009850;28;20838;-38
2023/11/21 08:50:19;;;;;;;14.63;2.15;;;;;;;-3.35;53.35;99087.00;5016542;28;20057;-38
2023/11/21 08:52:46;;;;;;;6.68;1.85;;;;;;;-3.34;53.32;99091.22;5017154;28;20084;-38
2023/11/21 08:55:13;;;;;;;3.00;1.35;;;;;;;-3.35;53.23;99087.88;5021730;28;20464;-38
2023/11/21 08:57:43;;;;;;;3.85;1.75;;;;;;;-3.35;53.29;99092.94;5017856;28;20124;-38
2023/11/21 09:00:19;;;;;;;4.40;2.00;;;;;;;-3.32;53.16;99087.88;5020447;28;20041;-39
2023/11/21 09:02:45;;;;;;;3.95;2.20;;;;;;;-3.28;53.10;99092.16;5042388;28;20042;-38
2023/11/21 09:05:13;;;;;;;5.30;1.60;;;;;;;-3.40;52.91;99081.84;5022585;28;20044;-38
2023/11/21 09:07:41;;;;;;;8.25;2.38;;;;;;;-3.23;52.99;99104.91;5021443;28;20072;-38
2023/11/21 09:10:09;;;;;;;3.70;2.10;;;;;;;-3.19;52.88;99102.41;5014897;28;20068;-38
2023/11/21 09:12:39;;;;;;;6.20;1.88;;;;;;;-3.15;52.95;99108.41;5020006;28;20129;-38
2023/11/21 09:15:06;;;;;;;4.28;2.03;;;;;;;-3.14;53.18;99112.66;5016879;28;20420;-38
2023/11/21 09:17:34;;;;;;;5.57;2.00;;;;;;;-3.18;53.25;99106.69;5024633;28;20041;-38
2023/11/21 09:20:01;;;;;;;3.22;1.88;;;;;;;-3.19;53.37;99112.59;5030727;28;20095;-38
2023/11/21 09:22:29;;;;;;;5.00;1.88;;;;;;;-3.21;53.23;99110.88;5025427;28;20069;-38
2023/11/21 09:24:57;;;;;;;11.30;2.07;;;;;;;-3.18;53.15;99123.63;5009979;28;20042;-38
2023/11/21 09:27:25;;;;;;;8.27;1.92;;;;;;;-3.25;53.55;99124.41;5020436;28;20077;-40
2023/11/21 09:29:52;;;;;;;8.70;2.40;;;;;;;-3.33;53.83;99123.44;5009837;28;20049;-38
2023/11/21 09:32:19;;;;;;;10.68;2.10;;;;;;;-3.37;54.34;99122.56;5007835;28;20084;-37
2023/11/21 09:34:45;;;;;;;5.60;1.90;;;;;;;-3.36;54.70;99119.19;5021543;28;20038;-38
2023/11/21 09:37:11;;;;;;;3.25;1.77;;;;;;;-3.35;54.66;99117.50;5011683;28;20060;-38
2023/11/21 09:39:39;;;;;;;5.38;1.83;;;;;;;-3.33;55.09;99115.81;5009305;28;20089;-39
2023/11/21 09:42:48;;;;;;;4.65;2.03;;;;;;;-3.31;55.11;99116.69;5022062;28;20072;-39
2023/11/21 09:45:19;;;;;;;3.60;2.03;;;;;;;-3.31;54.83;99117.56;5008082;28;20052;-39
2023/11/21 09:47:46;;;;;;;4.55;2.53;;;;;;;-3.29;54.88;99117.56;5036367;28;20491;-39
2023/11/21 09:50:17;;;;;;;4.40;1.90;;;;;;;-3.58;55.18;99072.34;5018241;28;20038;-38
2023/11/21 09:53:10;;;;;;;4.95;2.08;;;;;;;-3.22;54.99;99124.41;5020565;28;20906;-38
2023/11/21 09:55:37;;;;;;;5.70;2.15;;;;;;;-3.25;54.62;99137.09;5021961;28;20387;-38
2023/11/21 09:58:03;;;;;;;7.82;1.40;;;;;;;-3.30;54.10;99133.66;5007267;28;20039;-38
2023/11/21 10:00:32;;;;;;;3.13;1.23;;;;;;;-3.45;53.74;99135.16;5021429;28;20064;-39
2023/11/21 10:02:59;;;;;;;4.20;1.70;;;;;;;-3.40;53.13;99137.75;5021401;28;20037;-38
2023/11/21 10:05:25;;;;;;;4.43;1.95;;;;;;;-3.32;53.50;99135.31;5022360;28;20094;-37
2023/11/21 10:07:52;;;;;;;3.65;1.52;;;;;;;-3.51;53.17;99103.75;5025476;28;20038;-38
2023/11/21 10:10:19;;;;;;;4.13;1.92;;;;;;;-3.34;53.18;99137.84;5013537;28;20041;-38
2023/11/21 10:12:53;;;;;;;5.00;1.98;;;;;;;-3.32;53.08;99140.41;5038563;28;20132;-39
2023/11/21 10:15:21;;;;;;;5.72;1.67;;;;;;;-3.53;53.35;99115.59;5022425;28;20069;-45
2023/11/21 10:17:49;;;;;;;5.83;2.00;;;;;;;-3.32;53.90;99141.25;5018895;28;20033;-39
2023/11/21 10:20:16;;;;;;;3.92;2.00;;;;;;;-3.30;53.75;99141.28;5007860;28;20354;-38
2023/11/21 10:22:43;;;;;;;4.90;1.98;;;;;;;-3.47;53.91;99100.41;5018274;28;20045;-39
2023/11/21 10:25:09;;;;;;;7.60;2.28;;;;;;;-3.25;53.88;99132.03;5018958;28;20041;-39
2023/11/21 10:27:39;;;;;;;4.82;2.08;;;;;;;-3.23;54.30;99137.97;4991899;28;20049;-38
2023/11/21 10:30:08;;;;;;;4.07;1.88;;;;;;;-3.26;53.57;99143.03;4989685;28;20045;-38
2023/11/21 10:32:34;;;;;;;5.72;2.13;;;;;;;-3.28;53.76;99139.59;5018514;28;20854;-40
2023/11/21 10:35:09;;;;;;;3.55;1.85;;;;;;;-3.32;53.48;99138.72;5018671;28;20040;-38
2023/11/21 10:37:40;;;;;;;7.95;2.00;;;;;;;-3.35;53.72;99143.78;5039413;28;20509;-38
2023/11/21 10:40:13;;;;;;;14.23;2.40;;;;;;;-3.44;53.81;99113.16;5024280;28;20548;-39
2023/11/21 10:42:40;;;;;;;3.20;2.03;;;;;;;-3.49;53.75;99110.56;5018790;28;20091;-38
2023/11/21 10:45:13;;;;;;;10.90;2.25;;;;;;;-3.31;53.50;99137.03;5022790;28;20049;-39
2023/11/21 10:47:42;;;;;;;3.28;1.95;;;;;;;-3.55;54.00;99100.31;5020188;28;20324;-38
2023/11/21 10:50:11;;;;;;;6.85;2.30;;;;;;;-3.34;53.72;99136.97;5013106;28;20043;-38
2023/11/21 10:52:47;;;;;;;6.25;2.08;;;;;;;-3.39;53.71;99136.06;5010063;28;20034;-38
2023/11/21 10:55:21;;;;;;;5.38;2.10;;;;;;;-3.38;54.55;99133.56;5026339;28;20048;-39
2023/11/21 10:58:02;;;;;;;6.70;2.40;;;;;;;-3.36;54.79;99147.16;5025350;28;20056;-38
2023/11/21 11:00:29;;;;;;;4.95;2.17;;;;;;;-3.35;54.64;99142.91;5011891;28;20510;-39
2023/11/21 11:02:55;;;;;;;3.38;1.95;;;;;;;-3.36;54.91;99147.16;5030972;28;20509;-38
2023/11/21 11:05:24;;;;;;;4.00;1.92;;;;;;;-3.35;55.29;99151.41;5022689;28;20096;-38
2023/11/21 11:07:59;;;;;;;4.68;2.00;;;;;;;-3.35;55.22;99151.41;5024263;28;20521;-38
2023/11/21 11:10:27;;;;;;;8.85;2.70;;;;;;;-3.38;55.48;99156.41;5021101;28;20046;-37
2023/11/21 11:12:59;;;;;;;4.70;2.08;;;;;;;-3.40;55.48;99142.84;5034841;28;20123;-39
2023/11/21 11:15:26;;;;;;;8.68;1.80;;;;;;;-3.44;54.87;99143.63;5021158;28;20389;-38
2023/11/21 11:17:56;;;;;;;4.05;1.77;;;;;;;-3.48;54.83;99149.53;5027264;28;20046;-38
2023/11/21 11:20:24;;;;;;;3.55;2.17;;;;;;;-3.55;54.94;99135.03;5021294;28;20561;-38
2023/11/21 11:23:05;;;;;;;3.97;1.83;;;;;;;-3.48;55.14;99145.28;5027404;28;20512;-39
2023/11/21 11:25:38;;;;;;;7.72;2.00;;;;;;;-3.48;55.29;99145.28;5019172;28;20053;-38
2023/11/21 11:28:11;;;;;;;4.60;2.00;;;;;;;-3.49;54.94;99150.34;5023837;28;20042;-39
2023/11/21 11:31:10;;;;;;;5.88;1.90;;;;;;;-3.46;55.16;99152.94;5018614;28;20333;-39
2023/11/21 11:34:15;;;;;;;4.68;2.03;;;;;;;-3.52;54.62;99157.94;4991169;28;20646;-38